createdAt,value
2023-03-19T00:01:13.203Z,45.73
2023-03-19T00:03:39.661Z,45.74
2023-03-19T00:06:06.576Z,45.68
2023-03-19T00:08:32.907Z,45.75
2023-03-19T00:10:59.274Z,45.69
2023-03-19T00:13:25.745Z,45.75
2023-03-19T00:15:52.073Z,45.67
2023-03-19T00:18:18.432Z,45.66
2023-03-19T00:20:44.784Z,45.72
2023-03-19T00:23:11.173Z,45.68
2023-03-19T00:25:37.515Z,45.71
2023-03-19T00:28:03.840Z,45.74
2023-03-19T00:30:30.237Z,45.70
2023-03-19T00:32:57.731Z,45.78
2023-03-19T00:35:30.515Z,45.65
2023-03-19T00:37:56.874Z,45.82
2023-03-19T00:40:23.269Z,45.67
2023-03-19T00:42:49.605Z,45.54
2023-03-19T00:45:16.541Z,45.36
2023-03-19T00:47:43.761Z,45.37
2023-03-19T00:50:12.743Z,45.59
2023-03-19T00:52:39.069Z,45.70
2023-03-19T00:55:05.754Z,45.74
2023-03-19T00:57:32.081Z,45.73
2023-03-19T00:59:58.436Z,45.82
2023-03-19T01:02:26.439Z,45.84
2023-03-19T01:04:53.532Z,45.75
2023-03-19T01:07:19.889Z,45.71
2023-03-19T01:09:46.564Z,45.76
2023-03-19T01:12:12.932Z,45.90
2023-03-19T01:14:39.512Z,45.86
2023-03-19T01:17:06.729Z,45.80
2023-03-19T01:19:33.120Z,45.87
2023-03-19T01:21:59.458Z,45.80
2023-03-19T01:24:28.890Z,45.80
2023-03-19T01:26:55.240Z,45.71
2023-03-19T01:29:41.863Z,45.74
2023-03-19T01:32:13.050Z,45.93
2023-03-19T01:35:06.068Z,45.77
2023-03-19T01:37:40.971Z,45.82
2023-03-19T01:40:08.936Z,45.82
2023-03-19T01:42:35.663Z,45.82
2023-03-19T01:45:37.384Z,45.75
2023-03-19T01:48:27.662Z,45.77
2023-03-19T01:51:01.697Z,45.75
2023-03-19T01:53:53.569Z,45.75
2023-03-19T01:56:37.534Z,45.77
2023-03-19T01:59:11.834Z,45.82
2023-03-19T02:02:03.268Z,45.72
2023-03-19T02:04:29.643Z,45.75
2023-03-19T02:06:56.270Z,45.71
2023-03-19T02:09:23.010Z,45.62
2023-03-19T02:11:49.335Z,45.68
2023-03-19T02:14:16.053Z,45.75
2023-03-19T02:16:42.395Z,45.67
2023-03-19T02:19:09.308Z,45.67
2023-03-19T02:21:35.651Z,45.65
2023-03-19T02:24:01.956Z,45.71
2023-03-19T02:26:47.614Z,45.69
2023-03-19T02:29:14.115Z,45.61
2023-03-19T02:31:40.994Z,45.55
2023-03-19T02:34:27.377Z,45.67
2023-03-19T02:36:54.479Z,45.55
2023-03-19T02:39:22.656Z,45.59
2023-03-19T02:41:49.360Z,45.60
2023-03-19T02:44:19.825Z,45.63
2023-03-19T02:46:48.045Z,45.59
2023-03-19T02:49:15.216Z,45.58
2023-03-19T02:51:42.038Z,45.53
2023-03-19T02:54:08.386Z,45.53
2023-03-19T02:56:34.740Z,45.62
2023-03-19T02:59:01.321Z,45.56
2023-03-19T03:01:28.372Z,45.49
2023-03-19T03:03:54.741Z,45.45
2023-03-19T03:06:22.248Z,45.49
2023-03-19T03:08:48.581Z,45.54
2023-03-19T03:11:14.923Z,45.52
2023-03-19T03:13:41.518Z,45.58
2023-03-19T03:16:07.887Z,45.54
2023-03-19T03:18:34.210Z,45.45
2023-03-19T03:21:01.410Z,45.52
2023-03-19T03:23:27.741Z,45.44
2023-03-19T03:25:54.071Z,45.69
2023-03-19T03:28:20.573Z,45.53
2023-03-19T03:30:47.008Z,45.57
2023-03-19T03:33:13.877Z,45.48
2023-03-19T03:35:40.509Z,45.47
2023-03-19T03:38:06.880Z,45.41
2023-03-19T03:40:34.372Z,45.21
2023-03-19T03:43:01.315Z,45.07
2023-03-19T03:45:28.320Z,44.97
2023-03-19T03:47:54.730Z,44.87
2023-03-19T03:50:21.091Z,44.80
2023-03-19T03:52:49.683Z,44.88
2023-03-19T03:55:16.156Z,45.15
2023-03-19T03:57:42.602Z,45.37
2023-03-19T04:00:09.168Z,45.77
2023-03-19T04:02:42.967Z,45.42
2023-03-19T04:05:13.471Z,45.18
2023-03-19T04:07:39.848Z,45.16
2023-03-19T04:10:06.223Z,45.42
2023-03-19T04:12:32.814Z,45.43
2023-03-19T04:14:59.185Z,45.40
2023-03-19T04:17:26.068Z,45.19
2023-03-19T04:19:52.455Z,45.52
2023-03-19T04:22:18.854Z,45.58
2023-03-19T04:24:45.230Z,46.03
2023-03-19T04:27:11.570Z,45.82
2023-03-19T04:29:38.857Z,45.80
2023-03-19T04:32:05.401Z,45.96
2023-03-19T04:34:31.862Z,45.77
2023-03-19T04:36:58.726Z,45.47
2023-03-19T04:39:25.707Z,45.44
2023-03-19T04:41:52.059Z,45.44
2023-03-19T04:44:24.811Z,45.60
2023-03-19T04:46:52.449Z,45.66
2023-03-19T04:49:20.775Z,45.59
2023-03-19T04:51:47.858Z,45.90
2023-03-19T04:54:14.910Z,45.98
2023-03-19T04:56:41.275Z,45.79
2023-03-19T04:59:08.478Z,45.79
2023-03-19T05:01:34.881Z,45.98
2023-03-19T05:04:05.530Z,45.89
2023-03-19T05:06:34.259Z,45.77
2023-03-19T05:09:00.765Z,45.84
2023-03-19T05:11:27.096Z,45.70
2023-03-19T05:14:05.630Z,46.03
2023-03-19T05:16:44.765Z,45.68
2023-03-19T05:19:11.116Z,45.75
2023-03-19T05:21:37.631Z,45.58
2023-03-19T05:24:04.497Z,45.64
2023-03-19T05:26:34.730Z,45.75
2023-03-19T05:29:24.082Z,45.73
2023-03-19T05:32:10.298Z,45.98
2023-03-19T05:34:37.356Z,46.06
2023-03-19T05:37:03.928Z,45.92
2023-03-19T05:39:31.047Z,45.75
2023-03-19T05:42:01.843Z,45.96
2023-03-19T05:44:29.696Z,45.60
2023-03-19T05:47:15.147Z,46.02
2023-03-19T05:49:47.234Z,45.79
2023-03-19T05:52:13.808Z,45.87
2023-03-19T05:54:41.322Z,46.04
2023-03-19T05:57:29.825Z,45.85
2023-03-19T06:00:02.672Z,45.72
2023-03-19T06:02:35.029Z,46.02
2023-03-19T06:05:20.629Z,45.85
2023-03-19T06:07:47.071Z,45.93
2023-03-19T06:10:27.252Z,46.31
2023-03-19T06:12:56.104Z,45.98
2023-03-19T06:15:47.417Z,45.87
2023-03-19T06:18:23.770Z,45.84
2023-03-19T06:20:50.249Z,46.21
2023-03-19T06:23:17.368Z,46.02
2023-03-19T06:25:43.824Z,46.13
2023-03-19T06:28:10.868Z,45.86
2023-03-19T06:30:39.825Z,45.84
2023-03-19T06:33:27.711Z,45.88
2023-03-19T06:35:54.387Z,46.00
2023-03-19T06:38:21.121Z,46.05
2023-03-19T06:40:48.260Z,46.19
2023-03-19T06:43:14.612Z,46.14
2023-03-19T06:45:41.301Z,46.30
2023-03-19T06:48:07.658Z,46.13
2023-03-19T06:50:34.247Z,45.94
2023-03-19T06:53:00.860Z,46.07
2023-03-19T06:55:27.193Z,46.33
2023-03-19T06:57:53.543Z,46.23
2023-03-19T07:00:20.676Z,46.48
2023-03-19T07:02:47.454Z,45.99
2023-03-19T07:05:13.767Z,46.09
2023-03-19T07:07:40.170Z,46.14
2023-03-19T07:10:06.644Z,46.37
2023-03-19T07:12:32.976Z,45.98
2023-03-19T07:14:59.299Z,46.01
2023-03-19T07:17:26.314Z,46.17
2023-03-19T07:19:52.660Z,46.23
2023-03-19T07:22:19.003Z,46.24
2023-03-19T07:24:45.404Z,46.10
2023-03-19T07:27:11.755Z,45.84
2023-03-19T07:29:38.231Z,46.07
2023-03-19T07:32:04.617Z,45.96
2023-03-19T07:34:31.027Z,45.89
2023-03-19T07:36:57.456Z,45.97
2023-03-19T07:39:23.814Z,46.18
2023-03-19T07:41:50.509Z,46.40
2023-03-19T07:44:16.854Z,46.08
2023-03-19T07:46:43.187Z,45.99
2023-03-19T07:49:09.536Z,45.82
2023-03-19T07:51:36.713Z,46.07
2023-03-19T07:54:03.065Z,47.39
2023-03-19T07:56:29.431Z,46.91
2023-03-19T07:58:56.128Z,46.69
2023-03-19T08:01:22.473Z,46.98
2023-03-19T08:03:48.935Z,47.05
2023-03-19T08:06:15.283Z,47.62
2023-03-19T08:08:41.708Z,47.60
2023-03-19T08:11:08.641Z,47.52
2023-03-19T08:13:34.979Z,47.59
2023-03-19T08:16:01.324Z,47.31
2023-03-19T08:18:27.703Z,47.12
2023-03-19T08:20:54.028Z,46.80
2023-03-19T08:23:20.805Z,46.94
2023-03-19T08:25:47.131Z,47.04
2023-03-19T08:28:13.471Z,46.90
2023-03-19T08:30:39.876Z,47.06
2023-03-19T08:33:06.709Z,47.00
2023-03-19T08:35:33.158Z,46.74
2023-03-19T08:37:59.565Z,46.99
2023-03-19T08:40:26.013Z,47.01
2023-03-19T08:42:52.872Z,47.16
2023-03-19T08:45:19.253Z,47.79
2023-03-19T08:47:45.774Z,47.20
2023-03-19T08:50:12.125Z,47.42
2023-03-19T08:52:38.494Z,47.49
2023-03-19T08:55:05.423Z,47.50
2023-03-19T08:57:32.129Z,47.59
2023-03-19T08:59:58.464Z,47.86
2023-03-19T09:02:24.804Z,47.82
2023-03-19T09:04:51.214Z,47.58
2023-03-19T09:07:17.649Z,47.66
2023-03-19T09:09:44.015Z,47.74
2023-03-19T09:12:11.140Z,47.68
2023-03-19T09:14:37.486Z,48.05
2023-03-19T09:17:03.998Z,47.87
2023-03-19T09:19:30.331Z,47.79
2023-03-19T09:21:56.694Z,47.80
2023-03-19T09:24:23.021Z,47.98
2023-03-19T09:26:49.678Z,47.65
2023-03-19T09:29:16.689Z,47.64
2023-03-19T09:31:43.020Z,47.63
2023-03-19T09:34:09.377Z,47.67
2023-03-19T09:36:36.482Z,47.67
2023-03-19T09:39:02.833Z,47.48
2023-03-19T09:41:32.204Z,47.74
2023-03-19T09:44:02.145Z,47.71
2023-03-19T09:46:30.935Z,47.30
2023-03-19T09:49:03.003Z,47.45
2023-03-19T09:51:30.753Z,47.70
2023-03-19T09:53:58.300Z,47.91
2023-03-19T09:56:24.622Z,47.78
2023-03-19T09:58:51.086Z,47.71
2023-03-19T10:01:22.046Z,47.68
2023-03-19T10:03:54.154Z,47.68
2023-03-19T10:06:29.275Z,47.65
2023-03-19T10:09:01.156Z,47.74
2023-03-19T10:11:30.801Z,47.62
2023-03-19T10:14:17.038Z,47.47
2023-03-19T10:16:43.435Z,47.55
2023-03-19T10:19:10.687Z,47.60
2023-03-19T10:21:39.567Z,47.47
2023-03-19T10:24:17.787Z,47.60
2023-03-19T10:26:44.121Z,47.55
2023-03-19T10:29:11.647Z,47.53
2023-03-19T10:31:46.440Z,47.63
2023-03-19T10:34:18.806Z,47.51
2023-03-19T10:36:45.277Z,47.84
2023-03-19T10:39:14.343Z,47.57
2023-03-19T10:41:42.676Z,47.84
2023-03-19T10:44:22.147Z,48.00
2023-03-19T10:46:48.505Z,48.07
2023-03-19T10:49:15.002Z,48.12
2023-03-19T10:51:45.234Z,47.87
2023-03-19T10:54:21.805Z,48.18
2023-03-19T10:56:48.147Z,48.60
2023-03-19T10:59:21.470Z,48.48
2023-03-19T11:01:47.797Z,48.42
2023-03-19T11:04:17.809Z,48.56
2023-03-19T11:06:47.969Z,48.62
2023-03-19T11:09:16.415Z,48.48
2023-03-19T11:11:43.619Z,48.40
2023-03-19T11:14:24.945Z,48.77
2023-03-19T11:16:54.087Z,48.61
2023-03-19T11:19:21.464Z,48.53
2023-03-19T11:22:14.228Z,48.52
2023-03-19T11:24:41.017Z,48.45
2023-03-19T11:27:07.747Z,48.43
2023-03-19T11:29:38.394Z,48.57
2023-03-19T11:32:21.059Z,48.49
2023-03-19T11:34:54.345Z,48.38
2023-03-19T11:37:30.552Z,48.24
2023-03-19T11:39:59.270Z,48.23
2023-03-19T11:42:28.532Z,48.20
2023-03-19T11:45:00.955Z,47.97
2023-03-19T11:47:32.448Z,48.01
2023-03-19T11:50:01.831Z,48.16
2023-03-19T11:53:27.991Z,48.22
2023-03-19T11:56:02.325Z,47.79
2023-03-19T11:58:48.084Z,47.96
2023-03-19T12:01:28.251Z,47.91
2023-03-19T12:04:08.041Z,48.09
2023-03-19T12:06:34.861Z,48.11
2023-03-19T12:09:08.352Z,48.11
2023-03-19T12:11:34.609Z,48.29
2023-03-19T12:14:09.697Z,48.18
2023-03-19T12:16:46.178Z,48.26
2023-03-19T12:19:31.990Z,48.23
2023-03-19T12:22:07.144Z,48.61
2023-03-19T12:24:37.884Z,48.34
2023-03-19T12:27:22.472Z,48.44
2023-03-19T12:30:02.033Z,48.64
2023-03-19T12:32:32.493Z,48.56
2023-03-19T12:34:59.731Z,48.72
2023-03-19T12:37:30.112Z,48.85
2023-03-19T12:40:06.810Z,48.65
2023-03-19T12:42:37.001Z,48.78
2023-03-19T12:45:04.772Z,48.81
2023-03-19T12:47:35.334Z,48.66
2023-03-19T12:50:05.852Z,48.74
2023-03-19T12:52:32.565Z,48.68
2023-03-19T12:55:16.222Z,48.59
2023-03-19T12:57:52.768Z,48.47
2023-03-19T13:00:28.553Z,48.71
2023-03-19T13:02:57.433Z,48.58
2023-03-19T13:05:30.688Z,48.50
2023-03-19T13:08:16.912Z,48.53
2023-03-19T13:10:43.237Z,48.43
2023-03-19T13:13:22.772Z,48.28
2023-03-19T13:15:49.352Z,48.38
2023-03-19T13:18:28.154Z,48.34
2023-03-19T13:21:04.601Z,48.56
2023-03-19T13:23:32.339Z,48.29
2023-03-19T13:25:58.684Z,48.48
2023-03-19T13:28:29.329Z,48.40
2023-03-19T13:30:59.361Z,48.34
2023-03-19T13:33:25.785Z,48.56
2023-03-19T13:35:52.150Z,48.66
2023-03-19T13:38:19.923Z,48.75
2023-03-19T13:40:47.080Z,48.42
2023-03-19T13:43:28.276Z,48.49
2023-03-19T13:46:05.488Z,48.37
2023-03-19T13:48:31.759Z,48.40
2023-03-19T13:51:01.864Z,48.24
2023-03-19T13:53:31.215Z,48.40
2023-03-19T13:56:00.936Z,48.39
2023-03-19T13:58:49.132Z,48.31
2023-03-19T14:01:24.321Z,48.64
2023-03-19T14:03:58.722Z,48.59
2023-03-19T14:06:33.314Z,48.48
2023-03-19T14:08:59.691Z,48.49
2023-03-19T14:11:29.001Z,48.56
2023-03-19T14:13:55.341Z,48.39
2023-03-19T14:16:26.094Z,48.41
2023-03-19T14:18:55.966Z,48.59
2023-03-19T14:21:54.703Z,48.45
2023-03-19T14:24:55.786Z,48.46
2023-03-19T14:27:25.486Z,48.41
2023-03-19T14:29:51.813Z,48.47
2023-03-19T14:32:18.820Z,48.57
2023-03-19T14:34:45.677Z,48.41
2023-03-19T14:37:30.721Z,48.51
2023-03-19T14:40:04.378Z,48.51
2023-03-19T14:42:43.389Z,48.55
2023-03-19T14:45:14.271Z,48.47
2023-03-19T14:47:59.451Z,48.50
2023-03-19T14:50:44.635Z,48.61
2023-03-19T14:53:14.574Z,48.66
2023-03-19T14:55:41.032Z,48.60
2023-03-19T14:58:12.060Z,48.63
2023-03-19T15:00:45.324Z,48.69
2023-03-19T15:03:14.606Z,48.61
2023-03-19T15:05:40.944Z,48.70
2023-03-19T15:08:09.449Z,48.65
2023-03-19T15:10:39.605Z,48.56
2023-03-19T15:13:14.308Z,48.64
2023-03-19T15:15:49.596Z,48.67
2023-03-19T15:18:16.250Z,48.82
2023-03-19T15:20:43.105Z,48.78
2023-03-19T15:23:25.739Z,48.83
2023-03-19T15:25:57.024Z,48.74
2023-03-19T15:28:23.873Z,48.69
2023-03-19T15:31:03.585Z,48.69
2023-03-19T15:33:41.504Z,48.80
2023-03-19T15:36:16.398Z,48.48
2023-03-19T15:38:47.445Z,48.65
2023-03-19T15:41:13.795Z,48.69
2023-03-19T15:43:40.402Z,48.53
2023-03-19T15:46:07.706Z,48.59
2023-03-19T15:48:36.061Z,48.74
2023-03-19T15:51:02.405Z,48.70
2023-03-19T15:53:29.423Z,48.48
2023-03-19T15:55:55.741Z,48.63
2023-03-19T15:58:25.794Z,48.52
2023-03-19T16:00:53.046Z,48.83
2023-03-19T16:03:20.126Z,48.57
2023-03-19T16:05:50.451Z,48.72
2023-03-19T16:08:22.142Z,48.65
2023-03-19T16:10:48.482Z,48.89
2023-03-19T16:13:28.154Z,48.58
2023-03-19T16:15:55.616Z,48.50
2023-03-19T16:18:22.960Z,48.47
2023-03-19T16:21:00.793Z,48.38
2023-03-19T16:23:29.448Z,48.37
2023-03-19T16:25:56.491Z,48.39
2023-03-19T16:28:25.762Z,48.43
2023-03-19T16:30:52.606Z,48.27
2023-03-19T16:33:20.513Z,48.38
2023-03-19T16:35:46.939Z,48.29
2023-03-19T16:38:23.014Z,48.36
2023-03-19T16:40:49.885Z,48.39
2023-03-19T16:43:20.248Z,48.30
2023-03-19T16:45:49.841Z,48.33
2023-03-19T16:48:16.333Z,48.52
2023-03-19T16:50:43.992Z,48.34
2023-03-19T16:53:20.995Z,48.36
2023-03-19T16:55:57.224Z,48.34
2023-03-19T16:58:34.820Z,48.35
2023-03-19T17:01:01.175Z,48.43
2023-03-19T17:03:30.037Z,48.39
2023-03-19T17:05:56.388Z,48.45
2023-03-19T17:08:23.972Z,48.37
2023-03-19T17:10:50.777Z,48.43
2023-03-19T17:13:28.167Z,48.40
2023-03-19T17:15:54.952Z,48.43
2023-03-19T17:18:25.015Z,48.52
2023-03-19T17:20:55.780Z,48.34
2023-03-19T17:23:26.694Z,48.36
2023-03-19T17:25:53.420Z,48.38
2023-03-19T17:28:19.749Z,48.25
2023-03-19T17:30:46.080Z,48.37
2023-03-19T17:33:20.195Z,48.36
2023-03-19T17:35:46.632Z,48.37
2023-03-19T17:38:13.205Z,48.37
2023-03-19T17:40:39.606Z,48.20
2023-03-19T17:43:08.095Z,48.29
2023-03-19T17:45:34.419Z,48.31
2023-03-19T17:48:00.828Z,48.02
2023-03-19T17:50:29.021Z,48.03
2023-03-19T17:52:55.447Z,48.02
2023-03-19T17:55:22.753Z,48.11
2023-03-19T17:57:51.875Z,47.94
2023-03-19T18:00:18.815Z,48.08
2023-03-19T18:02:45.484Z,48.00
2023-03-19T18:05:18.816Z,48.06
2023-03-19T18:07:45.554Z,47.95
2023-03-19T18:10:15.507Z,47.87
2023-03-19T18:12:41.838Z,47.72
2023-03-19T18:15:08.296Z,47.90
2023-03-19T18:17:34.619Z,47.83
2023-03-19T18:20:01.841Z,47.84
2023-03-19T18:22:29.022Z,47.74
2023-03-19T18:24:55.351Z,47.76
2023-03-19T18:27:24.551Z,47.71
2023-03-19T18:29:51.073Z,47.81
2023-03-19T18:32:22.707Z,47.70
2023-03-19T18:34:49.046Z,47.73
2023-03-19T18:37:15.962Z,47.73
2023-03-19T18:39:42.336Z,47.66
2023-03-19T18:42:09.960Z,47.78
2023-03-19T18:44:36.292Z,47.80
2023-03-19T18:47:02.629Z,47.92
2023-03-19T18:49:28.942Z,47.78
2023-03-19T18:52:02.649Z,47.87
2023-03-19T18:54:30.736Z,48.07
2023-03-19T18:56:57.188Z,47.95
2023-03-19T18:59:25.079Z,47.89
2023-03-19T19:01:52.499Z,48.04
2023-03-19T19:04:18.863Z,48.00
2023-03-19T19:06:48.095Z,48.08
2023-03-19T19:09:14.643Z,48.22
2023-03-19T19:11:41.089Z,47.92
2023-03-19T19:14:08.584Z,48.09
2023-03-19T19:16:36.035Z,48.26
2023-03-19T19:19:02.735Z,48.35
2023-03-19T19:21:29.078Z,48.37
2023-03-19T19:23:55.567Z,48.29
2023-03-19T19:26:22.652Z,48.24
2023-03-19T19:28:48.991Z,48.21
2023-03-19T19:31:19.490Z,48.12
2023-03-19T19:33:45.840Z,48.05
2023-03-19T19:36:12.195Z,48.21
2023-03-19T19:38:38.553Z,47.94
2023-03-19T19:41:05.713Z,48.16
2023-03-19T19:43:32.077Z,47.95
2023-03-19T19:45:58.431Z,47.98
2023-03-19T19:48:25.349Z,48.02
2023-03-19T19:50:51.842Z,48.15
2023-03-19T19:53:18.285Z,48.07
2023-03-19T19:55:44.795Z,47.99
2023-03-19T19:58:18.336Z,47.95
2023-03-19T20:00:50.327Z,47.83
2023-03-19T20:03:27.134Z,47.85
2023-03-19T20:05:53.525Z,47.90
2023-03-19T20:08:19.914Z,47.86
2023-03-19T20:10:46.406Z,47.75
2023-03-19T20:13:21.317Z,47.91
2023-03-19T20:15:47.730Z,47.82
2023-03-19T20:18:14.684Z,47.85
2023-03-19T20:20:41.012Z,47.71
2023-03-19T20:23:07.556Z,47.77
2023-03-19T20:25:34.197Z,47.68
2023-03-19T20:28:00.776Z,47.71
2023-03-19T20:30:31.291Z,47.73
2023-03-19T20:32:58.053Z,47.69
2023-03-19T20:35:25.356Z,47.63
2023-03-19T20:37:52.068Z,47.53
2023-03-19T20:40:18.644Z,47.45
2023-03-19T20:42:45.994Z,47.54
2023-03-19T20:45:16.179Z,47.45
2023-03-19T20:47:42.513Z,47.39
2023-03-19T20:50:15.458Z,47.42
2023-03-19T20:52:41.773Z,47.48
2023-03-19T20:55:08.732Z,47.41
2023-03-19T20:57:35.050Z,47.35
2023-03-19T21:00:01.928Z,47.44
2023-03-19T21:02:28.456Z,47.33
2023-03-19T21:04:54.833Z,47.40
2023-03-19T21:07:27.218Z,47.27
2023-03-19T21:09:53.532Z,47.37
2023-03-19T21:12:25.577Z,47.34
2023-03-19T21:14:53.062Z,47.37
2023-03-19T21:17:19.908Z,47.31
2023-03-19T21:19:46.232Z,47.41
2023-03-19T21:22:14.041Z,47.28
2023-03-19T21:24:40.523Z,47.39
2023-03-19T21:27:08.057Z,47.65
2023-03-19T21:29:34.436Z,47.47
2023-03-19T21:32:00.770Z,47.36
2023-03-19T21:34:28.329Z,47.42
2023-03-19T21:36:54.774Z,47.54
2023-03-19T21:39:21.925Z,47.54
2023-03-19T21:41:48.306Z,47.43
2023-03-19T21:44:15.432Z,47.59
2023-03-19T21:46:42.428Z,47.53
2023-03-19T21:49:11.984Z,47.67
2023-03-19T21:51:38.325Z,47.76
2023-03-19T21:54:05.552Z,47.78
2023-03-19T21:56:37.481Z,47.59
2023-03-19T21:59:04.244Z,47.74
2023-03-19T22:01:30.580Z,47.78
2023-03-19T22:03:57.123Z,47.66
2023-03-19T22:06:24.651Z,47.85
2023-03-19T22:08:53.613Z,47.80
2023-03-19T22:11:29.529Z,47.71
2023-03-19T22:14:01.909Z,47.79
2023-03-19T22:16:28.964Z,47.72
2023-03-19T22:18:55.356Z,47.71
2023-03-19T22:21:22.073Z,47.68
2023-03-19T22:23:48.405Z,47.78
2023-03-19T22:26:23.925Z,47.77
2023-03-19T22:28:50.269Z,47.71
2023-03-19T22:31:16.678Z,47.68
2023-03-19T22:33:43.088Z,47.75
2023-03-19T22:36:12.634Z,47.70
2023-03-19T22:38:38.963Z,47.68
2023-03-19T22:41:05.297Z,47.70
2023-03-19T22:43:32.002Z,47.78
2023-03-19T22:45:59.350Z,47.63
2023-03-19T22:48:26.006Z,47.53
2023-03-19T22:50:52.386Z,47.62
2023-03-19T22:53:19.520Z,47.69
2023-03-19T22:55:45.973Z,47.53
2023-03-19T22:58:12.294Z,47.55
2023-03-19T23:00:38.652Z,47.63
2023-03-19T23:03:05.335Z,47.68
2023-03-19T23:05:32.563Z,47.63
2023-03-19T23:07:58.890Z,47.65
2023-03-19T23:10:26.741Z,47.60
2023-03-19T23:12:53.617Z,47.63
2023-03-19T23:15:20.742Z,47.68
2023-03-19T23:17:47.390Z,47.64
2023-03-19T23:20:13.820Z,47.60
2023-03-19T23:22:40.350Z,47.65
2023-03-19T23:25:09.474Z,47.65
2023-03-19T23:27:36.882Z,47.57
2023-03-19T23:30:03.755Z,47.56
2023-03-19T23:32:30.103Z,47.59
2023-03-19T23:35:01.225Z,47.63
2023-03-19T23:37:28.811Z,47.61
2023-03-19T23:39:56.224Z,47.61
2023-03-19T23:42:25.217Z,47.83
2023-03-19T23:44:52.512Z,47.68
2023-03-19T23:47:18.857Z,47.71
2023-03-19T23:49:45.726Z,47.65
2023-03-19T23:52:12.710Z,47.58
2023-03-19T23:54:39.081Z,47.52
2023-03-19T23:57:06.614Z,47.54
2023-03-19T23:59:34.035Z,47.76
